Time,TemperatureF,DewpointF,PressureIn,WindDirection,WindDirectionDegrees,WindSpeedMPH,WindSpeedGustMPH,Humidity,HourlyPrecipIn,Conditions,Clouds,dailyrainin,SolarRadiationWatts/m^2,SoftwareType,DateUTC
2013-04-10 00:02:00,58.0,58.0,-100.00,North,8,4.0,13.0,100,0.00,,,0.01,0.000000,,2013-04-10 10:02:00,
2013-04-10 00:12:00,58.0,58.0,-100.00,North,8,4.0,13.0,100,0.00,,,0.01,0.000000,,2013-04-10 10:12:00,
2013-04-10 00:43:00,57.0,55.0,-100.00,North,6,3.0,13.0,94,0.00,,,0.01,0.000000,,2013-04-10 10:43:00,
2013-04-10 00:52:00,57.0,55.0,-100.00,North,6,3.0,13.0,94,0.00,,,0.01,0.000000,,2013-04-10 10:52:00,
2013-04-10 01:02:00,57.0,55.0,-100.00,North,6,3.0,13.0,94,0.00,,,0.01,0.000000,,2013-04-10 11:02:00,
2013-04-10 01:12:00,57.0,55.0,-100.00,North,6,3.0,13.0,94,0.00,,,0.01,0.000000,,2013-04-10 11:12:00,
2013-04-10 01:22:00,57.0,55.0,-100.00,North,6,3.0,13.0,94,0.00,,,0.01,0.000000,,2013-04-10 11:22:00,
2013-04-10 03:43:00,57.0,50.0,-100.00,North,358,4.0,15.0,77,-99.99,,,0.00,0.000000,,2013-04-10 13:43:00,
2013-04-10 03:53:00,57.0,50.0,-100.00,North,358,4.0,15.0,77,-99.99,,,0.00,0.000000,,2013-04-10 13:53:00,
2013-04-10 04:02:00,57.0,50.0,-100.00,North,358,4.0,15.0,77,-99.99,,,0.00,0.000000,,2013-04-10 14:02:00,
2013-04-10 04:12:00,57.0,50.0,-100.00,North,358,4.0,15.0,77,-99.99,,,0.00,0.000000,,2013-04-10 14:12:00,
2013-04-10 04:21:00,57.0,50.0,-100.00,North,358,4.0,15.0,77,-99.99,,,0.00,0.000000,,2013-04-10 14:21:00,
2013-04-10 04:42:00,57.0,51.0,-100.00,North,353,3.0,12.0,79,0.00,,,-99.99,0.000000,,2013-04-10 14:42:00,
2013-04-10 04:52:00,57.0,51.0,-100.00,North,353,3.0,12.0,79,0.00,,,-99.99,0.000000,,2013-04-10 14:52:00,
2013-04-10 05:02:00,57.0,51.0,-100.00,North,353,3.0,12.0,79,0.00,,,-99.99,0.000000,,2013-04-10 15:02:00,
2013-04-10 05:12:00,57.0,51.0,-100.00,North,353,3.0,12.0,79,0.00,,,-99.99,0.000000,,2013-04-10 15:12:00,
2013-04-10 05:21:00,57.0,51.0,-100.00,North,353,3.0,12.0,79,0.00,,,-99.99,0.000000,,2013-04-10 15:21:00,
2013-04-10 05:23:00,56.0,51.0,-100.00,North,352,3.0,10.0,83,0.00,,,0.00,0.000000,,2013-04-10 15:23:00,
2013-04-10 05:52:00,56.0,51.0,-100.00,North,352,3.0,10.0,83,0.00,,,0.00,0.000000,,2013-04-10 15:52:00,
2013-04-10 06:02:00,56.0,51.0,-100.00,North,352,3.0,10.0,83,0.00,,,0.00,0.000000,,2013-04-10 16:02:00,
2013-04-10 06:12:00,56.0,51.0,-100.00,North,352,3.0,10.0,83,0.00,,,0.00,0.000000,,2013-04-10 16:12:00,
2013-04-10 06:43:00,56.0,52.0,-100.00,North,357,3.0,13.0,86,0.00,,,0.00,0.000000,,2013-04-10 16:43:00,
2013-04-10 06:53:00,56.0,52.0,-100.00,North,357,3.0,13.0,86,0.00,,,0.00,0.000000,,2013-04-10 16:53:00,
2013-04-10 07:02:00,56.0,52.0,-100.00,North,357,3.0,13.0,86,0.00,,,0.00,0.000000,,2013-04-10 17:02:00,
2013-04-10 07:12:00,56.0,52.0,-100.00,North,357,3.0,13.0,86,0.00,,,0.00,0.000000,,2013-04-10 17:12:00,
2013-04-10 07:22:00,56.0,52.0,-100.00,North,357,3.0,13.0,86,0.00,,,0.00,0.000000,,2013-04-10 17:22:00,
2013-04-10 07:43:00,58.0,54.0,-100.00,North,11,4.0,18.0,88,0.00,,,0.00,13.000000,,2013-04-10 17:43:00,
2013-04-10 07:52:00,58.0,54.0,-100.00,North,11,4.0,18.0,88,0.00,,,0.00,13.000000,,2013-04-10 17:52:00,
2013-04-10 08:02:00,58.0,54.0,-100.00,North,11,4.0,18.0,88,0.00,,,0.00,13.000000,,2013-04-10 18:02:00,
2013-04-10 08:12:00,58.0,54.0,-100.00,North,11,4.0,18.0,88,0.00,,,0.00,13.000000,,2013-04-10 18:12:00,
2013-04-10 08:22:00,58.0,54.0,-100.00,North,11,4.0,18.0,88,0.00,,,0.00,13.000000,,2013-04-10 18:22:00,
2013-04-10 08:43:00,60.0,53.0,-100.00,NNE,29,4.0,14.0,77,0.00,,,0.00,153.000000,,2013-04-10 18:43:00,
2013-04-10 08:52:00,60.0,53.0,-100.00,NNE,29,4.0,14.0,77,0.00,,,0.00,153.000000,,2013-04-10 18:52:00,
2013-04-10 09:02:00,60.0,53.0,-100.00,NNE,29,4.0,14.0,77,0.00,,,0.00,153.000000,,2013-04-10 19:02:00,
2013-04-10 09:12:00,60.0,53.0,-100.00,NNE,29,4.0,14.0,77,0.00,,,0.00,153.000000,,2013-04-10 19:12:00,
2013-04-10 09:22:00,60.0,53.0,-100.00,NNE,29,4.0,14.0,77,0.00,,,0.00,153.000000,,2013-04-10 19:22:00,
2013-04-10 09:42:00,63.0,51.0,-100.00,NE,40,4.0,14.0,66,0.00,,,0.00,486.000000,,2013-04-10 19:42:00,
2013-04-10 09:53:00,63.0,51.0,-100.00,NE,40,4.0,14.0,66,0.00,,,0.00,486.000000,,2013-04-10 19:53:00,
2013-04-10 10:02:00,63.0,51.0,-100.00,NE,40,4.0,14.0,66,0.00,,,0.00,486.000000,,2013-04-10 20:02:00,
2013-04-10 10:12:00,63.0,51.0,-100.00,NE,40,4.0,14.0,66,0.00,,,0.00,486.000000,,2013-04-10 20:12:00,
2013-04-10 10:22:00,63.0,51.0,-100.00,NE,40,4.0,14.0,66,0.00,,,0.00,486.000000,,2013-04-10 20:22:00,
2013-04-10 10:52:00,66.0,56.0,-100.00,NE,52,5.0,18.0,71,0.00,,,0.00,683.000000,,2013-04-10 20:52:00,
2013-04-10 11:02:00,66.0,56.0,-100.00,NE,52,5.0,18.0,71,0.00,,,0.00,683.000000,,2013-04-10 21:02:00,
2013-04-10 11:12:00,66.0,56.0,-100.00,NE,52,5.0,18.0,71,0.00,,,0.00,683.000000,,2013-04-10 21:12:00,
2013-04-10 11:22:00,66.0,56.0,-100.00,NE,52,5.0,18.0,71,0.00,,,0.00,683.000000,,2013-04-10 21:22:00,
2013-04-10 11:43:00,67.0,57.0,-100.00,NE,51,5.0,22.0,71,0.00,,,0.00,772.000000,,2013-04-10 21:43:00,
2013-04-10 11:53:00,67.0,57.0,-100.00,NE,51,5.0,22.0,71,0.00,,,0.00,772.000000,,2013-04-10 21:53:00,
2013-04-10 12:03:00,67.0,57.0,-100.00,NE,51,5.0,22.0,71,0.00,,,0.00,772.000000,,2013-04-10 22:03:00,
2013-04-10 12:12:00,67.0,57.0,-100.00,NE,51,5.0,22.0,71,0.00,,,0.00,772.000000,,2013-04-10 22:12:00,
2013-04-10 12:22:00,67.0,57.0,-100.00,NE,51,5.0,22.0,71,0.00,,,0.00,772.000000,,2013-04-10 22:22:00,
2013-04-10 12:53:00,69.0,60.0,-100.00,East,86,5.0,18.0,72,0.00,,,0.00,831.000000,,2013-04-10 22:53:00,
2013-04-10 13:02:00,69.0,60.0,-100.00,East,86,5.0,18.0,72,0.00,,,0.00,831.000000,,2013-04-10 23:02:00,
2013-04-10 13:12:00,69.0,60.0,-100.00,East,86,5.0,18.0,72,0.00,,,0.00,831.000000,,2013-04-10 23:12:00,
2013-04-10 13:22:00,69.0,60.0,-100.00,East,86,5.0,18.0,72,0.00,,,0.00,831.000000,,2013-04-10 23:22:00,
2013-04-10 13:43:00,68.0,59.0,-100.00,ENE,70,5.0,16.0,72,0.00,,,0.00,815.000000,,2013-04-10 23:43:00,
2013-04-10 13:52:00,68.0,59.0,-100.00,ENE,70,5.0,16.0,72,0.00,,,0.00,815.000000,,2013-04-10 23:52:00,
2013-04-10 14:02:00,68.0,59.0,-100.00,ENE,70,5.0,16.0,72,0.00,,,0.00,815.000000,,2013-04-11 00:02:00,
2013-04-10 14:12:00,68.0,59.0,-100.00,ENE,70,5.0,16.0,72,0.00,,,0.00,815.000000,,2013-04-11 00:12:00,
2013-04-10 14:21:00,68.0,59.0,-100.00,ENE,70,5.0,16.0,72,0.00,,,0.00,815.000000,,2013-04-11 00:21:00,
2013-04-10 14:42:00,69.0,59.0,-100.00,ENE,69,4.0,14.0,71,0.00,,,0.00,776.000000,,2013-04-11 00:42:00,
2013-04-10 14:53:00,69.0,59.0,-100.00,ENE,69,4.0,14.0,71,0.00,,,0.00,776.000000,,2013-04-11 00:53:00,
2013-04-10 15:02:00,69.0,59.0,-100.00,ENE,69,4.0,14.0,71,0.00,,,0.00,776.000000,,2013-04-11 01:02:00,
2013-04-10 15:12:00,69.0,59.0,-100.00,ENE,69,4.0,14.0,71,0.00,,,0.00,776.000000,,2013-04-11 01:12:00,
2013-04-10 15:21:00,69.0,59.0,-100.00,ENE,69,4.0,14.0,71,0.00,,,0.00,776.000000,,2013-04-11 01:21:00,
2013-04-10 15:52:00,69.0,55.0,-100.00,NNE,30,5.0,18.0,61,0.00,,,0.00,851.000000,,2013-04-11 01:52:00,
2013-04-10 16:02:00,69.0,55.0,-100.00,NNE,30,5.0,18.0,61,0.00,,,0.00,851.000000,,2013-04-11 02:02:00,
2013-04-10 16:12:00,69.0,55.0,-100.00,NNE,30,5.0,18.0,61,0.00,,,0.00,851.000000,,2013-04-11 02:12:00,
2013-04-10 16:22:00,69.0,55.0,-100.00,NNE,30,5.0,18.0,61,0.00,,,0.00,851.000000,,2013-04-11 02:22:00,
2013-04-10 16:52:00,70.0,56.0,-100.00,NE,45,4.0,18.0,61,0.00,,,0.00,700.000000,,2013-04-11 02:52:00,
2013-04-10 17:02:00,70.0,56.0,-100.00,NE,45,4.0,18.0,61,0.00,,,0.00,700.000000,,2013-04-11 03:02:00,
2013-04-10 17:12:00,70.0,56.0,-100.00,NE,45,4.0,18.0,61,0.00,,,0.00,700.000000,,2013-04-11 03:12:00,
2013-04-10 17:21:00,70.0,56.0,-100.00,NE,45,4.0,18.0,61,0.00,,,0.00,700.000000,,2013-04-11 03:21:00,
2013-04-10 17:53:00,68.0,60.0,-100.00,NE,35,5.0,16.0,75,0.00,,,0.00,475.000000,,2013-04-11 03:53:00,
2013-04-10 18:03:00,68.0,60.0,-100.00,NE,35,5.0,16.0,75,0.00,,,0.00,475.000000,,2013-04-11 04:03:00,
2013-04-10 18:12:00,68.0,60.0,-100.00,NE,35,5.0,16.0,75,0.00,,,0.00,475.000000,,2013-04-11 04:12:00,
2013-04-10 18:22:00,68.0,60.0,-100.00,NE,35,5.0,16.0,75,0.00,,,0.00,475.000000,,2013-04-11 04:22:00,
2013-04-10 18:43:00,66.0,62.0,-100.00,NE,54,4.0,13.0,88,0.00,,,0.00,231.000000,,2013-04-11 04:43:00,
2013-04-10 18:53:00,66.0,62.0,-100.00,NE,54,4.0,13.0,88,0.00,,,0.00,231.000000,,2013-04-11 04:53:00,
2013-04-10 19:02:00,66.0,62.0,-100.00,NE,54,4.0,13.0,88,0.00,,,0.00,231.000000,,2013-04-11 05:02:00,
2013-04-10 19:12:00,66.0,62.0,-100.00,NE,54,4.0,13.0,88,0.00,,,0.00,231.000000,,2013-04-11 05:12:00,
2013-04-10 19:22:00,66.0,62.0,-100.00,NE,54,4.0,13.0,88,0.00,,,0.00,231.000000,,2013-04-11 05:22:00,
2013-04-10 19:53:00,62.0,-99.9,-100.00,NE,37,4.0,16.0,-999,0.00,,,0.00,26.000000,,2013-04-11 05:53:00,
2013-04-10 20:02:00,62.0,-99.9,-100.00,NE,37,4.0,16.0,-999,0.00,,,0.00,26.000000,,2013-04-11 06:02:00,
2013-04-10 20:12:00,62.0,-99.9,-100.00,NE,37,4.0,16.0,-999,0.00,,,0.00,26.000000,,2013-04-11 06:12:00,
2013-04-10 20:22:00,62.0,-99.9,-100.00,NE,37,4.0,16.0,-999,0.00,,,0.00,26.000000,,2013-04-11 06:22:00,
2013-04-10 20:42:00,61.0,-99.9,-100.00,NNE,31,4.0,19.0,-999,0.00,,,0.00,0.000000,,2013-04-11 06:42:00,
2013-04-10 20:53:00,61.0,-99.9,-100.00,NNE,31,4.0,19.0,-999,0.00,,,0.00,0.000000,,2013-04-11 06:53:00,
2013-04-10 21:03:00,61.0,-99.9,-100.00,NNE,31,4.0,19.0,-999,0.00,,,0.00,0.000000,,2013-04-11 07:03:00,
2013-04-10 21:12:00,61.0,-99.9,-100.00,NNE,31,4.0,19.0,-999,0.00,,,0.00,0.000000,,2013-04-11 07:12:00,
2013-04-10 21:22:00,61.0,-99.9,-100.00,NNE,31,4.0,19.0,-999,0.00,,,0.00,0.000000,,2013-04-11 07:22:00,
2013-04-10 21:52:00,61.0,-99.9,-100.00,NE,44,4.0,15.0,-999,0.00,,,0.00,0.000000,,2013-04-11 07:52:00,
2013-04-10 22:03:00,61.0,-99.9,-100.00,NE,44,4.0,15.0,-999,0.00,,,0.00,0.000000,,2013-04-11 08:03:00,
2013-04-10 22:12:00,61.0,-99.9,-100.00,NE,44,4.0,15.0,-999,0.00,,,0.00,0.000000,,2013-04-11 08:12:00,
2013-04-10 22:22:00,61.0,-99.9,-100.00,NE,44,4.0,15.0,-999,0.00,,,0.00,0.000000,,2013-04-11 08:22:00,
2013-04-10 22:43:00,60.0,-99.9,-100.00,NNE,33,4.0,17.0,-999,0.00,,,0.00,0.000000,,2013-04-11 08:43:00,
2013-04-10 22:52:00,60.0,-99.9,-100.00,NNE,33,4.0,17.0,-999,0.00,,,0.00,0.000000,,2013-04-11 08:52:00,
2013-04-10 23:02:00,60.0,-99.9,-100.00,NNE,33,4.0,17.0,-999,0.00,,,0.00,0.000000,,2013-04-11 09:02:00,
2013-04-10 23:12:00,60.0,-99.9,-100.00,NNE,33,4.0,17.0,-999,0.00,,,0.00,0.000000,,2013-04-11 09:12:00,
2013-04-10 23:22:00,60.0,-99.9,-100.00,NNE,33,4.0,17.0,-999,0.00,,,0.00,0.000000,,2013-04-11 09:22:00,
2013-04-10 23:23:00,60.0,-99.9,-100.00,NNE,16,4.0,20.0,-999,0.00,,,0.00,0.000000,,2013-04-11 09:23:00,
2013-04-10 23:53:00,60.0,-99.9,-100.00,NNE,16,4.0,20.0,-999,0.00,,,0.00,0.000000,,2013-04-11 09:53:00,